createdAt,value
2018-08-12T00:00:48.134Z,1010.29
2018-08-12T00:01:48.133Z,1010.31
2018-08-12T00:02:48.135Z,1010.30
2018-08-12T00:03:48.129Z,1010.23
2018-08-12T00:04:48.129Z,1010.25
2018-08-12T00:05:48.126Z,1010.26
2018-08-12T00:06:48.125Z,1010.26
2018-08-12T00:07:48.124Z,1010.27
2018-08-12T00:08:48.124Z,1010.26
2018-08-12T00:09:48.121Z,1010.27
2018-08-12T00:10:48.120Z,1010.19
2018-08-12T00:11:48.119Z,1010.21
2018-08-12T00:12:48.117Z,1010.17
2018-08-12T00:13:48.116Z,1010.17
2018-08-12T00:14:48.114Z,1010.18
2018-08-12T00:15:48.114Z,1010.16
2018-08-12T00:16:48.112Z,1010.13
2018-08-12T00:17:48.110Z,1010.14
2018-08-12T00:18:48.108Z,1010.16
2018-08-12T00:19:48.107Z,1010.11
2018-08-12T00:20:48.107Z,1010.09
2018-08-12T00:21:48.104Z,1010.09
2018-08-12T00:22:48.104Z,1010.08
2018-08-12T00:23:48.102Z,1010.06
2018-08-12T00:24:48.101Z,1010.13
2018-08-12T00:25:48.098Z,1010.08
2018-08-12T00:26:48.100Z,1010.13
2018-08-12T00:27:48.095Z,1010.14
2018-08-12T00:28:48.094Z,1010.12
2018-08-12T00:29:48.096Z,1010.11
2018-08-12T00:30:48.092Z,1010.11
2018-08-12T00:31:48.091Z,1010.10
2018-08-12T00:32:48.091Z,1010.09
2018-08-12T00:33:48.088Z,1010.08
2018-08-12T00:34:48.086Z,1010.06
2018-08-12T00:35:48.083Z,1010.06
2018-08-12T00:36:48.084Z,1010.05
2018-08-12T00:37:48.079Z,1010.00
2018-08-12T00:38:48.081Z,1010.04
2018-08-12T00:39:48.078Z,1010.03
2018-08-12T00:40:48.077Z,1010.05
2018-08-12T00:41:48.074Z,1010.03
2018-08-12T00:42:48.072Z,1010.02
2018-08-12T00:43:48.072Z,1010.05
2018-08-12T00:44:48.074Z,1010.04
2018-08-12T00:45:48.069Z,1010.02
2018-08-12T00:46:48.067Z,1010.00
2018-08-12T00:47:48.066Z,1009.98
2018-08-12T00:48:48.072Z,1010.02
2018-08-12T00:49:48.061Z,1009.97
2018-08-12T00:50:48.059Z,1009.98
2018-08-12T00:51:48.059Z,1009.97
2018-08-12T00:52:48.056Z,1009.97
2018-08-12T00:53:48.055Z,1009.98
2018-08-12T00:54:48.053Z,1009.95
2018-08-12T00:55:48.056Z,1009.91
2018-08-12T00:56:48.051Z,1009.93
2018-08-12T00:57:48.049Z,1009.96
2018-08-12T00:58:48.047Z,1009.99
2018-08-12T00:59:48.045Z,1010.00
2018-08-12T01:00:48.043Z,1010.03
2018-08-12T01:01:48.040Z,1010.03
2018-08-12T01:02:48.039Z,1009.99
2018-08-12T01:03:48.037Z,1010.01
2018-08-12T01:04:48.036Z,1009.96
2018-08-12T01:05:48.034Z,1009.98
2018-08-12T01:06:48.032Z,1009.96
2018-08-12T01:07:48.031Z,1009.96
2018-08-12T01:08:48.028Z,1010.03
2018-08-12T01:09:48.025Z,1009.99
2018-08-12T01:10:48.026Z,1009.99
2018-08-12T01:11:48.022Z,1009.98
2018-08-12T01:12:48.020Z,1009.99
2018-08-12T01:13:48.018Z,1009.95
2018-08-12T01:14:48.017Z,1009.98
2018-08-12T01:15:48.014Z,1009.95
2018-08-12T01:16:48.012Z,1009.97
2018-08-12T01:17:48.009Z,1009.95
2018-08-12T01:18:48.009Z,1009.93
2018-08-12T01:19:48.006Z,1009.92
2018-08-12T01:20:48.003Z,1009.91
2018-08-12T01:21:48.001Z,1009.87
2018-08-12T01:22:48.000Z,1009.88
2018-08-12T01:23:48.000Z,1009.88
2018-08-12T01:24:47.996Z,1009.84
2018-08-12T01:25:47.992Z,1009.81
2018-08-12T01:26:47.994Z,1009.83
2018-08-12T01:27:47.989Z,1009.80
2018-08-12T01:28:47.986Z,1009.81
2018-08-12T01:29:47.985Z,1009.83
2018-08-12T01:30:47.983Z,1009.80
2018-08-12T01:31:47.979Z,1009.78
2018-08-12T01:32:47.979Z,1009.79
2018-08-12T01:33:47.976Z,1009.82
2018-08-12T01:34:47.973Z,1009.82
2018-08-12T01:35:47.984Z,1009.80
2018-08-12T01:36:47.970Z,1009.83
2018-08-12T01:37:47.967Z,1009.80
2018-08-12T01:38:47.965Z,1009.77
2018-08-12T01:39:47.962Z,1009.78
2018-08-12T01:40:47.961Z,1009.76
2018-08-12T01:41:47.957Z,1009.76
2018-08-12T01:42:47.961Z,1009.69
2018-08-12T01:43:47.956Z,1009.67
2018-08-12T01:44:47.952Z,1009.68
2018-08-12T01:45:47.951Z,1009.63
2018-08-12T01:46:47.945Z,1009.66
2018-08-12T01:47:47.944Z,1009.66
2018-08-12T01:48:47.942Z,1009.61
2018-08-12T01:49:47.939Z,1009.66
2018-08-12T01:50:47.935Z,1009.66
2018-08-12T01:51:47.934Z,1009.64
2018-08-12T01:52:47.932Z,1009.64
2018-08-12T01:53:47.928Z,1009.60
2018-08-12T01:54:47.926Z,1009.60
2018-08-12T01:55:47.924Z,1009.58
2018-08-12T01:56:47.923Z,1009.57
2018-08-12T01:57:47.918Z,1009.55
2018-08-12T01:58:47.925Z,1009.52
2018-08-12T01:59:47.918Z,1009.51
2018-08-12T02:00:47.913Z,1009.48
2018-08-12T02:01:47.909Z,1009.47
2018-08-12T02:02:47.906Z,1009.46
2018-08-12T02:03:47.904Z,1009.50
2018-08-12T02:04:47.902Z,1009.46
2018-08-12T02:05:47.900Z,1009.44
2018-08-12T02:06:47.897Z,1009.42
2018-08-12T02:07:47.894Z,1009.44
2018-08-12T02:08:47.893Z,1009.44
2018-08-12T02:09:47.890Z,1009.46
2018-08-12T02:10:47.886Z,1009.40
2018-08-12T02:11:47.884Z,1009.39
2018-08-12T02:12:47.883Z,1009.41
2018-08-12T02:13:47.879Z,1009.35
2018-08-12T02:14:47.878Z,1009.30
2018-08-12T02:15:47.874Z,1009.25
2018-08-12T02:16:47.873Z,1009.27
2018-08-12T02:17:47.868Z,1009.23
2018-08-12T02:18:47.867Z,1009.22
2018-08-12T02:19:47.866Z,1009.24
2018-08-12T02:20:47.862Z,1009.24
2018-08-12T02:21:47.859Z,1009.21
2018-08-12T02:22:47.857Z,1009.19
2018-08-12T02:23:47.855Z,1009.18
2018-08-12T02:24:47.852Z,1009.19
2018-08-12T02:25:47.849Z,1009.17
2018-08-12T02:26:47.847Z,1009.14
2018-08-12T02:27:47.843Z,1009.14
2018-08-12T02:28:47.841Z,1009.11
2018-08-12T02:29:47.839Z,1009.15
2018-08-12T02:30:47.836Z,1009.14
2018-08-12T02:31:47.833Z,1009.11
2018-08-12T02:32:47.831Z,1009.12
2018-08-12T02:33:47.829Z,1009.10
2018-08-12T02:34:47.826Z,1009.06
2018-08-12T02:35:47.822Z,1009.03
2018-08-12T02:36:47.820Z,1009.05
2018-08-12T02:37:47.818Z,1008.99
2018-08-12T02:38:47.816Z,1009.04
2018-08-12T02:39:47.812Z,1008.99
2018-08-12T02:40:47.811Z,1008.97
2018-08-12T02:41:47.811Z,1008.98
2018-08-12T02:42:47.804Z,1008.99
2018-08-12T02:43:47.803Z,1008.94
2018-08-12T02:44:47.801Z,1008.99
2018-08-12T02:45:47.796Z,1008.95
2018-08-12T02:46:47.794Z,1008.93
2018-08-12T02:47:47.791Z,1008.97
2018-08-12T02:48:47.788Z,1008.93
2018-08-12T02:49:47.792Z,1008.94
2018-08-12T02:50:47.783Z,1008.94
2018-08-12T02:51:47.780Z,1008.88
2018-08-12T02:52:47.778Z,1008.89
2018-08-12T02:53:47.774Z,1008.92
2018-08-12T02:54:47.773Z,1008.86
2018-08-12T02:55:47.771Z,1008.86
2018-08-12T02:56:47.768Z,1008.82
2018-08-12T02:57:47.775Z,1008.84
2018-08-12T02:58:47.761Z,1008.85
2018-08-12T02:59:47.759Z,1008.80
2018-08-12T03:00:47.757Z,1008.79
2018-08-12T03:01:47.760Z,1008.79
2018-08-12T03:02:47.751Z,1008.75
2018-08-12T03:03:47.753Z,1008.76
2018-08-12T03:04:47.745Z,1008.74
2018-08-12T03:05:47.740Z,1008.75
2018-08-12T03:06:47.738Z,1008.69
2018-08-12T03:07:47.737Z,1008.68
2018-08-12T03:08:47.734Z,1008.66
2018-08-12T03:09:47.730Z,1008.63
2018-08-12T03:10:47.727Z,1008.64
2018-08-12T03:11:47.726Z,1008.59
2018-08-12T03:12:47.729Z,1008.59
2018-08-12T03:13:47.718Z,1008.60
2018-08-12T03:14:47.715Z,1008.57
2018-08-12T03:15:47.713Z,1008.53
2018-08-12T03:16:47.714Z,1008.57
2018-08-12T03:17:47.707Z,1008.57
2018-08-12T03:18:47.707Z,1008.58
2018-08-12T03:19:47.701Z,1008.59
2018-08-12T03:20:47.699Z,1008.62
2018-08-12T03:21:47.699Z,1008.59
2018-08-12T03:22:47.694Z,1008.60
2018-08-12T03:23:47.691Z,1008.55
2018-08-12T03:24:47.686Z,1008.51
2018-08-12T03:25:47.687Z,1008.52
2018-08-12T03:26:47.689Z,1008.48
2018-08-12T03:27:47.679Z,1008.44
2018-08-12T03:28:47.676Z,1008.52
2018-08-12T03:29:47.671Z,1008.46
2018-08-12T03:30:47.670Z,1008.46
2018-08-12T03:31:47.668Z,1008.47
2018-08-12T03:32:47.663Z,1008.40
2018-08-12T03:33:47.660Z,1008.41
2018-08-12T03:34:47.658Z,1008.41
2018-08-12T03:35:47.655Z,1008.34
2018-08-12T03:36:47.653Z,1008.40
2018-08-12T03:37:47.648Z,1008.40
2018-08-12T03:38:47.648Z,1008.35
2018-08-12T03:39:47.647Z,1008.39
2018-08-12T03:40:47.640Z,1008.37
2018-08-12T03:41:47.642Z,1008.39
2018-08-12T03:42:47.635Z,1008.34
2018-08-12T03:43:47.631Z,1008.33
2018-08-12T03:44:47.628Z,1008.35
2018-08-12T03:45:47.624Z,1008.29
2018-08-12T03:46:47.621Z,1008.31
2018-08-12T03:47:47.619Z,1008.25
2018-08-12T03:48:47.638Z,1008.28
2018-08-12T03:49:47.613Z,1008.29
2018-08-12T03:50:47.609Z,1008.26
2018-08-12T03:51:47.607Z,1008.26
2018-08-12T03:52:47.605Z,1008.25
2018-08-12T03:53:47.601Z,1008.28
2018-08-12T03:54:47.597Z,1008.28
2018-08-12T03:55:47.595Z,1008.28
2018-08-12T03:56:47.593Z,1008.29
2018-08-12T03:57:47.590Z,1008.25
2018-08-12T03:58:47.590Z,1008.24
2018-08-12T03:59:47.587Z,1008.22
2018-08-12T04:00:47.581Z,1008.25
2018-08-12T04:01:47.577Z,1008.28
2018-08-12T04:02:47.575Z,1008.26
2018-08-12T04:03:47.572Z,1008.26
2018-08-12T04:04:47.570Z,1008.25
2018-08-12T04:05:47.565Z,1008.24
2018-08-12T04:06:47.563Z,1008.26
2018-08-12T04:07:47.560Z,1008.22
2018-08-12T04:08:47.557Z,1008.24
2018-08-12T04:09:47.553Z,1008.21
2018-08-12T04:10:47.551Z,1008.17
2018-08-12T04:11:47.548Z,1008.14
2018-08-12T04:12:47.546Z,1008.13
2018-08-12T04:13:47.541Z,1008.16
2018-08-12T04:14:47.538Z,1008.12
2018-08-12T04:15:47.537Z,1008.09
2018-08-12T04:16:47.534Z,1008.13
2018-08-12T04:17:47.535Z,1008.13
2018-08-12T04:18:47.527Z,1008.13
2018-08-12T04:19:47.524Z,1008.09
2018-08-12T04:20:47.523Z,1008.09
2018-08-12T04:21:47.518Z,1008.12
2018-08-12T04:22:47.517Z,1008.11
2018-08-12T04:23:47.514Z,1008.08
2018-08-12T04:24:47.511Z,1008.11
2018-08-12T04:25:47.506Z,1008.04
2018-08-12T04:26:47.503Z,1008.06
2018-08-12T04:27:47.501Z,1008.04
2018-08-12T04:28:47.500Z,1008.00
2018-08-12T04:29:47.496Z,1008.02
2018-08-12T04:30:47.493Z,1008.01
2018-08-12T04:31:47.493Z,1008.01
2018-08-12T04:32:47.488Z,1007.99
2018-08-12T04:33:47.484Z,1008.00
2018-08-12T04:34:47.482Z,1007.98
2018-08-12T04:35:47.478Z,1007.98
2018-08-12T04:36:47.477Z,1008.02
2018-08-12T04:37:47.472Z,1008.03
2018-08-12T04:38:47.469Z,1008.03
2018-08-12T04:39:47.469Z,1008.02
2018-08-12T04:40:47.463Z,1008.05
2018-08-12T04:41:47.460Z,1007.98
2018-08-12T04:42:47.459Z,1008.03
2018-08-12T04:43:47.456Z,1008.02
2018-08-12T04:44:47.453Z,1008.02
2018-08-12T04:45:47.448Z,1008.02
2018-08-12T04:46:47.446Z,1008.06
2018-08-12T04:47:47.445Z,1008.06
2018-08-12T04:48:47.440Z,1008.01
2018-08-12T04:49:47.438Z,1008.00
2018-08-12T04:50:47.435Z,1007.98
2018-08-12T04:51:47.437Z,1008.00
2018-08-12T04:52:47.430Z,1008.00
2018-08-12T04:53:47.426Z,1007.98
2018-08-12T04:54:47.425Z,1007.96
2018-08-12T04:55:47.423Z,1007.98
2018-08-12T04:56:47.419Z,1007.94
2018-08-12T04:57:47.416Z,1008.01
2018-08-12T04:58:47.413Z,1007.97
2018-08-12T04:59:47.412Z,1007.95
2018-08-12T05:00:47.410Z,1007.92
2018-08-12T05:01:47.406Z,1007.93
2018-08-12T05:02:47.404Z,1007.88
2018-08-12T05:03:47.402Z,1007.92
2018-08-12T05:04:47.400Z,1007.88
2018-08-12T05:05:47.396Z,1007.90
2018-08-12T05:06:47.395Z,1007.89
2018-08-12T05:07:47.393Z,1007.85
2018-08-12T05:08:47.391Z,1007.89
2018-08-12T05:09:47.388Z,1007.85
2018-08-12T05:10:47.384Z,1007.93
2018-08-12T05:11:47.383Z,1007.93
2018-08-12T05:12:47.381Z,1007.94
2018-08-12T05:13:47.377Z,1007.94
2018-08-12T05:14:47.376Z,1007.93
2018-08-12T05:15:47.375Z,1007.86
2018-08-12T05:16:47.372Z,1007.90
2018-08-12T05:17:47.370Z,1007.87
2018-08-12T05:18:47.368Z,1007.85
2018-08-12T05:19:47.372Z,1007.84
2018-08-12T05:20:47.363Z,1007.81
2018-08-12T05:21:47.362Z,1007.88
2018-08-12T05:22:47.360Z,1007.83
2018-08-12T05:23:47.358Z,1007.84
2018-08-12T05:24:47.356Z,1007.82
2018-08-12T05:25:47.355Z,1007.82
2018-08-12T05:26:47.352Z,1007.80
2018-08-12T05:27:47.350Z,1007.84
2018-08-12T05:28:47.350Z,1007.83
2018-08-12T05:29:47.347Z,1007.84
2018-08-12T05:30:47.346Z,1007.81
2018-08-12T05:31:47.345Z,1007.78
2018-08-12T05:32:47.343Z,1007.82
2018-08-12T05:33:47.340Z,1007.82
2018-08-12T05:34:47.338Z,1007.77
2018-08-12T05:35:47.339Z,1007.79
2018-08-12T05:36:47.337Z,1007.80
2018-08-12T05:37:47.334Z,1007.77
2018-08-12T05:38:47.334Z,1007.76
2018-08-12T05:39:47.335Z,1007.74
2018-08-12T05:40:47.331Z,1007.76
2018-08-12T05:41:47.329Z,1007.79
2018-08-12T05:42:47.329Z,1007.78
2018-08-12T05:43:47.327Z,1007.80
2018-08-12T05:44:47.327Z,1007.75
2018-08-12T05:45:47.325Z,1007.74
2018-08-12T05:46:47.323Z,1007.75
2018-08-12T05:47:47.324Z,1007.71
2018-08-12T05:48:47.322Z,1007.73
2018-08-12T05:49:47.319Z,1007.72
2018-08-12T05:50:47.319Z,1007.69
2018-08-12T05:51:47.323Z,1007.66
2018-08-12T05:52:47.317Z,1007.70
2018-08-12T05:53:47.315Z,1007.73
2018-08-12T05:54:47.319Z,1007.70
2018-08-12T05:55:47.314Z,1007.70
2018-08-12T05:56:47.314Z,1007.67
2018-08-12T05:57:47.313Z,1007.63
2018-08-12T05:58:47.311Z,1007.69
2018-08-12T05:59:47.311Z,1007.67
2018-08-12T06:00:47.312Z,1007.63
2018-08-12T06:01:47.311Z,1007.64
2018-08-12T06:02:47.362Z,1007.61
2018-08-12T06:03:47.308Z,1007.62
2018-08-12T06:04:47.306Z,1007.59
2018-08-12T06:05:47.307Z,1007.57
2018-08-12T06:06:47.305Z,1007.60
2018-08-12T06:07:47.305Z,1007.56
2018-08-12T06:08:47.345Z,1007.55
2018-08-12T06:09:47.303Z,1007.58
2018-08-12T06:10:47.305Z,1007.54
2018-08-12T06:11:47.305Z,1007.49
2018-08-12T06:12:47.301Z,1007.54
2018-08-12T06:13:47.300Z,1007.52
2018-08-12T06:14:47.301Z,1007.55
2018-08-12T06:15:47.299Z,1007.56
2018-08-12T06:16:47.299Z,1007.56
2018-08-12T06:17:47.300Z,1007.62
2018-08-12T06:18:47.298Z,1007.56
2018-08-12T06:19:47.296Z,1007.58
2018-08-12T06:20:47.298Z,1007.59
2018-08-12T06:21:47.295Z,1007.56
2018-08-12T06:22:47.296Z,1007.50
2018-08-12T06:23:47.298Z,1007.51
2018-08-12T06:24:47.295Z,1007.49
2018-08-12T06:25:47.313Z,1007.48
2018-08-12T06:26:47.295Z,1007.44
2018-08-12T06:27:47.294Z,1007.42
2018-08-12T06:28:47.295Z,1007.41
2018-08-12T06:29:47.294Z,1007.44
2018-08-12T06:30:47.294Z,1007.36
2018-08-12T06:31:47.294Z,1007.39
2018-08-12T06:32:47.294Z,1007.38
2018-08-12T06:33:47.293Z,1007.40
2018-08-12T06:34:47.293Z,1007.42
2018-08-12T06:35:47.292Z,1007.44
2018-08-12T06:36:47.293Z,1007.39
2018-08-12T06:37:47.291Z,1007.36
2018-08-12T06:38:47.293Z,1007.39
2018-08-12T06:39:47.301Z,1007.34
2018-08-12T06:40:47.292Z,1007.36
2018-08-12T06:41:47.292Z,1007.37
2018-08-12T06:42:47.291Z,1007.42
2018-08-12T06:43:47.293Z,1007.39
2018-08-12T06:44:47.291Z,1007.37
2018-08-12T06:45:47.291Z,1007.37
2018-08-12T06:46:47.291Z,1007.39
2018-08-12T06:47:47.295Z,1007.41
2018-08-12T06:48:47.292Z,1007.43
2018-08-12T06:49:47.291Z,1007.46
2018-08-12T06:50:47.291Z,1007.46
2018-08-12T06:51:47.362Z,1007.44
2018-08-12T06:52:47.291Z,1007.43
2018-08-12T06:53:47.292Z,1007.40
2018-08-12T06:54:47.291Z,1007.43
2018-08-12T06:55:47.291Z,1007.39
2018-08-12T06:56:47.296Z,1007.40
2018-08-12T06:57:47.291Z,1007.44
2018-08-12T06:58:47.292Z,1007.52
2018-08-12T06:59:47.291Z,1007.50
2018-08-12T07:00:47.292Z,1007.47
2018-08-12T07:01:47.293Z,1007.47
2018-08-12T07:02:47.293Z,1007.52
2018-08-12T07:03:47.292Z,1007.55
2018-08-12T07:04:47.293Z,1007.56
2018-08-12T07:05:47.293Z,1007.55
2018-08-12T07:06:47.295Z,1007.54
2018-08-12T07:07:47.294Z,1007.53
2018-08-12T07:08:47.297Z,1007.54
2018-08-12T07:09:47.296Z,1007.53
2018-08-12T07:10:47.298Z,1007.51
2018-08-12T07:11:47.298Z,1007.49
2018-08-12T07:12:47.300Z,1007.49
2018-08-12T07:13:47.300Z,1007.51
2018-08-12T07:14:47.302Z,1007.49
2018-08-12T07:15:47.302Z,1007.51
2018-08-12T07:16:47.305Z,1007.52
2018-08-12T07:17:47.305Z,1007.55
2018-08-12T07:18:47.307Z,1007.55
2018-08-12T07:19:47.310Z,1007.50
2018-08-12T07:20:47.311Z,1007.53
2018-08-12T07:21:47.314Z,1007.51
2018-08-12T07:22:47.315Z,1007.48
2018-08-12T07:23:47.320Z,1007.45
2018-08-12T07:24:47.338Z,1007.49
2018-08-12T07:25:47.320Z,1007.47
2018-08-12T07:26:47.324Z,1007.44
2018-08-12T07:27:47.327Z,1007.48
2018-08-12T07:28:47.329Z,1007.43
2018-08-12T07:29:47.331Z,1007.41
2018-08-12T07:30:47.334Z,1007.44
2018-08-12T07:31:47.336Z,1007.41
2018-08-12T07:32:47.343Z,1007.41
2018-08-12T07:33:47.342Z,1007.39
2018-08-12T07:34:47.344Z,1007.40
2018-08-12T07:35:47.347Z,1007.41
2018-08-12T07:36:47.351Z,1007.41
2018-08-12T07:37:47.359Z,1007.41
2018-08-12T07:38:47.381Z,1007.40
2018-08-12T07:39:47.361Z,1007.41
2018-08-12T07:40:47.364Z,1007.39
2018-08-12T07:41:47.367Z,1007.40
2018-08-12T07:42:47.370Z,1007.41
2018-08-12T07:43:47.374Z,1007.41
2018-08-12T07:44:47.379Z,1007.46
2018-08-12T07:45:47.381Z,1007.43
2018-08-12T07:46:47.386Z,1007.40
2018-08-12T07:47:47.392Z,1007.39
2018-08-12T07:48:47.446Z,1007.38
2018-08-12T07:49:47.396Z,1007.29
2018-08-12T07:50:47.401Z,1007.26
2018-08-12T07:51:47.405Z,1007.23
2018-08-12T07:52:47.410Z,1007.24
2018-08-12T07:53:47.412Z,1007.25
2018-08-12T07:54:47.418Z,1007.27
2018-08-12T07:55:47.496Z,1007.23
2018-08-12T07:56:47.427Z,1007.25
2018-08-12T07:57:47.429Z,1007.23
2018-08-12T07:58:47.435Z,1007.25
2018-08-12T07:59:47.439Z,1007.23
2018-08-12T08:00:47.443Z,1007.25
2018-08-12T08:01:47.447Z,1007.26
2018-08-12T08:02:47.453Z,1007.23
2018-08-12T08:03:47.457Z,1007.26
2018-08-12T08:04:47.462Z,1007.32
2018-08-12T08:05:47.468Z,1007.30
2018-08-12T08:06:47.473Z,1007.25
2018-08-12T08:07:47.477Z,1007.24
2018-08-12T08:08:47.481Z,1007.30
2018-08-12T08:09:47.485Z,1007.40
2018-08-12T08:10:47.492Z,1007.73
2018-08-12T08:11:47.496Z,1007.65
2018-08-12T08:12:47.503Z,1007.48
2018-08-12T08:13:47.511Z,1007.52
2018-08-12T08:14:47.513Z,1007.72
2018-08-12T08:15:47.521Z,1007.67
2018-08-12T08:16:47.526Z,1007.65
2018-08-12T08:17:47.533Z,1007.79
2018-08-12T08:18:47.539Z,1007.78
2018-08-12T08:19:47.551Z,1007.85
2018-08-12T08:20:47.556Z,1007.88
2018-08-12T08:21:47.564Z,1007.81
2018-08-12T08:22:47.575Z,1007.74
2018-08-12T08:23:47.581Z,1007.72
2018-08-12T08:24:47.591Z,1007.72
2018-08-12T08:25:47.628Z,1007.71
2018-08-12T08:26:47.609Z,1007.70
2018-08-12T08:27:47.619Z,1007.60
2018-08-12T08:28:47.630Z,1007.60
2018-08-12T08:29:47.643Z,1007.54
2018-08-12T08:30:47.654Z,1007.46
2018-08-12T08:31:47.838Z,1007.45
2018-08-12T08:32:47.678Z,1007.39
2018-08-12T08:33:47.691Z,1007.43
2018-08-12T08:34:47.698Z,1007.45
2018-08-12T08:35:47.712Z,1007.38
2018-08-12T08:36:47.724Z,1007.40
2018-08-12T08:37:47.735Z,1007.37
2018-08-12T08:38:47.755Z,1007.36
2018-08-12T08:39:47.762Z,1007.34
2018-08-12T08:40:47.775Z,1007.35
2018-08-12T08:41:47.787Z,1007.35
2018-08-12T08:42:47.801Z,1007.35
2018-08-12T08:43:47.815Z,1007.40
2018-08-12T08:44:47.829Z,1007.26
2018-08-12T08:45:47.843Z,1007.31
2018-08-12T08:46:47.855Z,1007.33
2018-08-12T08:47:47.869Z,1007.33
2018-08-12T08:48:47.884Z,1007.31
2018-08-12T08:49:47.934Z,1007.34
2018-08-12T08:50:47.935Z,1007.40
2018-08-12T08:51:47.926Z,1007.39
2018-08-12T08:52:47.940Z,1007.38
2018-08-12T08:53:47.955Z,1007.38
2018-08-12T08:54:47.968Z,1007.38
2018-08-12T08:55:48.085Z,1007.38
2018-08-12T08:56:47.998Z,1007.38
2018-08-12T08:57:48.015Z,1007.39
2018-08-12T08:58:48.027Z,1007.38
2018-08-12T08:59:48.042Z,1007.44
2018-08-12T09:00:48.058Z,1007.40
2018-08-12T09:01:48.073Z,1007.42
2018-08-12T09:02:48.087Z,1007.37
2018-08-12T09:03:48.104Z,1007.37
2018-08-12T09:04:48.117Z,1007.42
2018-08-12T09:05:48.132Z,1007.41
2018-08-12T09:06:48.146Z,1007.41
2018-08-12T09:07:48.163Z,1007.46
2018-08-12T09:08:48.274Z,1007.47
2018-08-12T09:09:48.192Z,1007.39
2018-08-12T09:10:48.208Z,1007.47
2018-08-12T09:11:48.223Z,1007.42
2018-08-12T09:12:48.238Z,1007.39
2018-08-12T09:13:48.252Z,1007.46
2018-08-12T09:14:48.269Z,1007.43
2018-08-12T09:15:48.284Z,1007.48
2018-08-12T09:16:48.297Z,1007.42
2018-08-12T09:17:48.312Z,1007.38
2018-08-12T09:18:48.332Z,1007.40
2018-08-12T09:19:48.344Z,1007.39
2018-08-12T09:20:48.358Z,1007.39
2018-08-12T09:21:48.373Z,1007.35
2018-08-12T09:22:48.388Z,1007.38
2018-08-12T09:23:48.403Z,1007.36
2018-08-12T09:24:48.417Z,1007.30
2018-08-12T09:25:48.432Z,1007.35
2018-08-12T09:26:48.449Z,1007.40
2018-08-12T09:27:48.464Z,1007.37
2018-08-12T09:28:48.476Z,1007.38
2018-08-12T09:29:48.495Z,1007.32
2018-08-12T09:30:48.506Z,1007.36
2018-08-12T09:31:48.524Z,1007.27
2018-08-12T09:32:48.536Z,1007.28
2018-08-12T09:33:48.551Z,1007.20
2018-08-12T09:34:48.565Z,1007.31
2018-08-12T09:35:48.580Z,1007.25
2018-08-12T09:36:48.595Z,1007.28
2018-08-12T09:37:48.611Z,1007.25
2018-08-12T09:38:48.624Z,1007.29
2018-08-12T09:39:48.641Z,1007.30
2018-08-12T09:40:48.655Z,1007.24
2018-08-12T09:41:48.670Z,1007.31
2018-08-12T09:42:48.688Z,1007.34
2018-08-12T09:43:48.700Z,1007.27
2018-08-12T09:44:48.715Z,1007.26
2018-08-12T09:45:48.728Z,1007.24
2018-08-12T09:46:48.744Z,1007.28
2018-08-12T09:47:48.759Z,1007.31
2018-08-12T09:48:48.775Z,1007.30
2018-08-12T09:49:48.789Z,1007.30
2018-08-12T09:50:48.803Z,1007.31
2018-08-12T09:51:48.857Z,1007.30
2018-08-12T09:52:48.842Z,1007.25
2018-08-12T09:53:48.849Z,1007.23
2018-08-12T09:54:48.863Z,1007.29
2018-08-12T09:55:48.882Z,1007.21
2018-08-12T09:56:48.897Z,1007.25
2018-08-12T09:57:48.909Z,1007.25
2018-08-12T09:58:48.924Z,1007.20
2018-08-12T09:59:48.941Z,1007.17
2018-08-12T10:00:48.957Z,1007.18
2018-08-12T10:01:48.968Z,1007.18
2018-08-12T10:02:48.984Z,1007.17
2018-08-12T10:03:48.998Z,1007.13
2018-08-12T10:04:49.013Z,1007.14
2018-08-12T10:05:49.027Z,1007.04
2018-08-12T10:06:49.042Z,1006.94
2018-08-12T10:07:49.057Z,1007.06
2018-08-12T10:08:49.074Z,1007.16
2018-08-12T10:09:49.090Z,1007.17
2018-08-12T10:10:49.102Z,1007.15
2018-08-12T10:11:49.117Z,1007.11
2018-08-12T10:12:49.131Z,1007.08
2018-08-12T10:13:49.147Z,1007.10
2018-08-12T10:14:49.159Z,1007.07
2018-08-12T10:15:49.174Z,1007.03
2018-08-12T10:16:49.189Z,1006.96
2018-08-12T10:17:49.205Z,1006.98
2018-08-12T10:18:49.218Z,1007.08
2018-08-12T10:19:49.233Z,1007.05
2018-08-12T10:20:49.248Z,1007.09
2018-08-12T10:21:49.263Z,1007.03
2018-08-12T10:22:49.279Z,1007.03
2018-08-12T10:23:49.294Z,1006.99
2018-08-12T10:24:49.307Z,1006.95
2018-08-12T10:25:49.321Z,1006.97
2018-08-12T10:26:49.338Z,1006.91
2018-08-12T10:27:49.352Z,1006.86
2018-08-12T10:28:49.367Z,1006.87
2018-08-12T10:29:49.385Z,1006.82
2018-08-12T10:30:49.397Z,1006.81
2018-08-12T10:31:49.410Z,1006.92
2018-08-12T10:32:49.426Z,1006.88
2018-08-12T10:33:49.439Z,1006.86
2018-08-12T10:34:49.458Z,1006.84
2018-08-12T10:35:49.471Z,1006.75
2018-08-12T10:36:49.487Z,1006.77
2018-08-12T10:37:49.499Z,1006.77
2018-08-12T10:38:49.513Z,1006.77
2018-08-12T10:39:49.532Z,1006.75
2018-08-12T10:40:49.545Z,1006.77
2018-08-12T10:41:49.560Z,1006.71
2018-08-12T10:42:49.572Z,1006.68
2018-08-12T10:43:49.595Z,1006.68
2018-08-12T10:44:49.601Z,1006.62
2018-08-12T10:45:49.618Z,1006.63
2018-08-12T10:46:49.631Z,1006.66
2018-08-12T10:47:49.644Z,1006.59
2018-08-12T10:48:49.659Z,1006.56
2018-08-12T10:49:49.674Z,1006.55
2018-08-12T10:50:49.743Z,1006.48
2018-08-12T10:51:49.703Z,1006.47
2018-08-12T10:52:49.715Z,1006.46
2018-08-12T10:53:49.731Z,1006.37
2018-08-12T10:54:49.745Z,1006.30
2018-08-12T10:55:49.761Z,1006.41
2018-08-12T10:56:49.772Z,1006.39
2018-08-12T10:57:49.786Z,1006.39
2018-08-12T10:58:49.801Z,1006.36
2018-08-12T10:59:49.815Z,1006.36
2018-08-12T11:00:49.832Z,1006.07
2018-08-12T11:01:49.844Z,1006.31
2018-08-12T11:02:49.856Z,1006.33
2018-08-12T11:03:49.871Z,1006.31
2018-08-12T11:04:49.886Z,1006.30
2018-08-12T11:05:49.898Z,1006.26
2018-08-12T11:06:49.912Z,1006.26
2018-08-12T11:07:49.929Z,1006.25
2018-08-12T11:08:49.941Z,1006.19
2018-08-12T11:09:49.953Z,1006.07
2018-08-12T11:10:49.966Z,1005.92
2018-08-12T11:11:49.981Z,1005.89
2018-08-12T11:12:50.011Z,1005.90
2018-08-12T11:13:50.007Z,1005.91
2018-08-12T11:14:50.019Z,1005.86
2018-08-12T11:15:50.033Z,1005.77
2018-08-12T11:16:50.046Z,1005.76
2018-08-12T11:17:50.058Z,1005.76
2018-08-12T11:18:50.073Z,1005.80
2018-08-12T11:19:50.085Z,1005.85
2018-08-12T11:20:50.103Z,1005.82
2018-08-12T11:21:50.108Z,1005.76
2018-08-12T11:22:50.121Z,1005.75
2018-08-12T11:23:50.135Z,1005.76
2018-08-12T11:24:50.147Z,1005.78
2018-08-12T11:25:50.158Z,1005.75
2018-08-12T11:26:50.171Z,1005.73
2018-08-12T11:29:28.633Z,1005.83
2018-08-12T11:30:28.644Z,1005.88
2018-08-12T11:31:28.654Z,1005.84
2018-08-12T11:32:28.666Z,1005.76
2018-08-12T11:33:28.676Z,1005.64
2018-08-12T11:34:28.689Z,1005.68
2018-08-12T11:35:28.700Z,1005.65
2018-08-12T11:36:28.711Z,1005.62
2018-08-12T11:37:28.724Z,1005.59
2018-08-12T11:38:28.735Z,1005.58
2018-08-12T11:39:28.743Z,1005.54
2018-08-12T11:40:28.755Z,1005.56
2018-08-12T11:41:28.766Z,1005.51
2018-08-12T11:42:28.776Z,1005.48
2018-08-12T11:43:28.787Z,1005.46
2018-08-12T11:44:28.799Z,1005.44
2018-08-12T11:45:28.808Z,1005.45
2018-08-12T11:47:55.893Z,1005.46
2018-08-12T11:48:55.500Z,1005.42
2018-08-12T11:49:55.505Z,1005.37
2018-08-12T11:50:55.515Z,1005.39
2018-08-12T11:51:55.527Z,1005.33
2018-08-12T11:52:55.537Z,1005.30
2018-08-12T11:53:55.546Z,1005.30
2018-08-12T11:54:55.557Z,1005.23
2018-08-12T11:55:55.569Z,1005.27
2018-08-12T11:56:55.625Z,1005.30
2018-08-12T11:57:55.588Z,1005.23
2018-08-12T11:58:55.601Z,1005.26
2018-08-12T11:59:55.609Z,1005.29
2018-08-12T12:00:55.619Z,1005.17
2018-08-12T12:01:55.630Z,1005.18
2018-08-12T12:02:55.638Z,1005.18
2018-08-12T12:03:55.651Z,1005.16
2018-08-12T12:04:55.659Z,1005.19
2018-08-12T12:05:55.668Z,1005.22
2018-08-12T12:06:55.684Z,1005.22
2018-08-12T12:07:55.691Z,1005.10
2018-08-12T12:08:55.698Z,1005.10